Latest Weather Observations for Holmes Reef

IDQ60801

Issued at 1:05 pm EST Saturday 23 August 2014 (issued every 30 minutes, with the page automatically refreshed every 10 minutes)

About weather observations | Map of weather stations | Latest weather observations for QLD | Other Formats
Station Details ID: 200732 Name: HOLMES REEF Lat: -16.47 Lon: 147.87 Height: 1.9 m
Data from the previous 72 hours. | See also: Recent months at Holmes Reef
Date/Time
EST
Temp
°C
App
Temp
°C
Dew
Point
Rel
Hum
%
Delta-T
°C
Wind Press
QNH
hPa
Press
MSL
hPa
Rain
since 9 am
mm
Dir
 
Spd
km/h
Gust
km/h
Spd
kts
Gust
kts
23/01:00pm 23.7 - - - - SE 37 43 20 23 1016.2 - -
23/12:30pm 23.9 - - - - SE 39 43 21 23 1016.6 - -
23/12:15pm 24.1 - - - - SE 39 - 21 - - 1016.5 -
23/12:00pm 24.0 - - - - SSE 39 44 21 24 1016.9 - -
23/11:30am 23.7 - - - - SSE 37 41 20 22 1017.3 - -
23/11:15am 23.9 - - - - SSE 37 - 20 - - 1017.2 -
23/11:00am 23.9 - - - - SSE 37 43 20 23 1017.6 - -
23/10:30am 23.7 - - - - SE 33 41 18 22 1018.1 - -
23/10:15am 23.9 - - - - SSE 33 - 18 - - 1018.0 -
23/10:00am 23.7 - - - - SE 35 43 19 23 1018.4 - -
23/09:30am 23.6 - - - - SSE 37 41 20 22 1018.3 - -
23/09:15am 23.7 - - - - SSE 33 - 18 - - 1018.0 -
23/09:00am 23.8 - - - - SSE 33 37 18 20 1018.4 - -
23/08:30am 23.7 - - - - SE 33 37 18 20 1018.0 - -
23/08:15am 23.5 - - - - SE 33 - 18 - - 1017.5 -
23/08:00am 23.4 - - - - SE 33 35 18 19 1017.6 - -
23/07:30am 23.8 - - - - SE 33 39 18 21 1017.2 - -
23/07:15am 23.4 - - - - SE 33 - 18 - - 1016.7 -
23/07:00am 23.3 - - - - SE 33 39 18 21 1016.9 - -
23/06:30am 23.4 - - - - SE 35 39 19 21 1016.6 - -
23/06:15am 23.4 - - - - SE 35 - 19 - - 1016.2 -
23/06:00am 23.4 - - - - SE 37 43 20 23 1016.2 - -
23/05:30am 23.3 - - - - SE 39 44 21 24 1015.7 - -
23/05:15am 23.3 - - - - SE 39 - 21 - - 1015.3 -
23/05:00am 23.3 - - - - SE 39 44 21 24 1015.5 - -
23/04:30am 23.2 - - - - SE 43 50 23 27 1014.8 - -
23/04:15am 23.2 - - - - SE 43 - 23 - - 1014.7 -
23/04:00am 23.3 - - - - SE 43 48 23 26 1015.1 - -
23/03:15am 23.3 - - - - SE 43 - 23 - - 1014.8 -
23/03:00am 23.3 - - - - SE 41 48 22 26 1015.3 - -
23/02:30am 23.2 - - - - SE 41 48 22 26 1015.5 - -
23/02:15am 23.6 - - - - SE 43 - 23 - - 1015.3 -
23/02:00am 23.1 - - - - SE 43 48 23 26 1015.7 - -
23/01:15am 23.3 - - - - SE 41 - 22 - - 1015.9 -
23/01:00am 23.3 - - - - SE 43 50 23 27 1016.4 - -
23/12:15am 23.5 - - - - SE 43 - 23 - - 1016.5 -
23/12:00am 23.3 - - - - SE 43 48 23 26 1016.6 - -
 
Date/Time
EST
Temp
°C
App
Temp
°C
Dew
Point
Rel
Hum
%
Delta-T
°C
Wind Press
QNH
hPa
Press
MSL
hPa
Rain
since 9 am
mm
Dir
 
Spd
km/h
Gust
km/h
Spd
kts
Gust
kts
22/11:15pm 23.2 - - - - SE 43 - 23 - - 1016.6 -
22/11:00pm 23.4 - - - - SE 44 50 24 27 1016.9 - -
22/10:15pm 23.4 - - - - SE 43 - 23 - - 1016.8 -
22/09:30pm 23.4 - - - - SE 41 46 22 25 1017.2 - -
22/09:15pm 23.4 - - - - SE 43 - 23 - - 1016.9 -
22/08:30pm 23.5 - - - - SE 43 48 23 26 1017.1 - -
22/08:15pm 23.5 - - - - SE 41 - 22 - - 1016.7 -
22/08:00pm 23.5 - - - - SE 43 46 23 25 1016.9 - -
22/07:15pm 23.7 - - - - SE 39 - 21 - - 1016.2 -
22/06:15pm 23.8 - - - - SE 37 - 20 - - 1015.3 -
22/06:00pm 23.8 - - - - SE 39 46 21 25 1015.5 - -
22/05:00pm 23.9 - - - - SE 39 43 21 23 1015.1 - -
22/04:30pm 23.8 - - - - SE 39 46 21 25 1015.2 - -
22/04:15pm 23.7 - - - - SE 39 - 21 - - 1014.7 -
22/04:00pm 23.8 - - - - SE 39 44 21 24 1015.1 - -
22/03:30pm 24.0 - - - - SE 39 46 21 25 1015.0 - -
22/03:15pm 23.8 - - - - SE 39 - 21 - - 1014.6 -
22/03:00pm 23.7 - - - - SE 39 44 21 24 1014.8 - -
22/02:30pm 23.5 - - - - SE 35 39 19 21 1015.0 - -
22/02:15pm 23.6 - - - - SE 33 - 18 - - 1014.8 -
22/02:00pm 23.7 - - - - SE 35 39 19 21 1015.2 - -
22/01:30pm 23.6 - - - - SE 35 41 19 22 1015.7 - -
22/01:15pm 23.7 - - - - SE 35 - 19 - - 1015.6 -
22/01:00pm 23.5 - - - - SE 35 43 19 23 1016.0 - -
22/12:30pm 23.7 - - - - ESE 35 41 19 22 1016.3 - -
22/12:15pm 23.5 - - - - ESE 33 - 18 - - 1016.3 -
22/12:00pm 23.6 - - - - ESE 33 39 18 21 1016.8 - -
22/11:30am 23.6 - - - - SE 35 39 19 21 1017.2 - -
22/11:15am 23.6 - - - - ESE 33 - 18 - - 1017.1 -
22/11:00am 23.5 - - - - ESE 33 41 18 22 1017.4 - -
22/10:30am 23.4 - - - - ESE 33 39 18 21 1017.9 - -
22/10:15am 23.4 - - - - ESE 33 - 18 - - 1017.8 -
22/10:00am 23.5 - - - - SE 33 41 18 22 1018.1 - -
22/09:30am 23.4 - - - - SE 32 39 17 21 1018.2 - -
22/09:15am 23.5 - - - - ESE 32 - 17 - - 1017.9 -
22/09:00am 23.4 - - - - ESE 35 41 19 22 1018.0 - -
22/08:30am 23.5 - - - - ESE 32 37 17 20 1017.9 - -
22/08:15am 23.5 - - - - SE 32 - 17 - - 1017.5 -
22/08:00am 23.5 - - - - SE 32 37 17 20 1017.6 - -
22/07:30am 23.7 - - - - SE 32 37 17 20 1017.2 - -
22/07:15am 23.2 - - - - SE 33 - 18 - - 1016.8 -
22/07:00am 23.2 - - - - SE 32 35 17 19 1016.9 - -
22/06:30am 23.0 - - - - SE 32 35 17 19 1016.6 - -
22/06:15am 23.0 - - - - SE 30 - 16 - - 1016.2 -
22/06:00am 23.2 - - - - SE 30 35 16 19 1016.3 - -
22/05:30am 23.3 - - - - SE 30 35 16 19 1016.0 - -
22/05:15am 23.0 - - - - SE 28 - 15 - - 1015.4 -
22/05:00am 23.0 - - - - ESE 30 35 16 19 1015.6 - -
22/04:30am 23.1 - - - - SE 30 35 16 19 1015.4 - -
22/04:15am 22.9 - - - - SE 30 - 16 - - 1015.2 -
22/03:30am 23.1 - - - - SE 30 33 16 18 1015.6 - -
22/03:15am 23.2 - - - - SE 30 - 16 - - 1015.3 -
22/03:00am 23.0 - - - - ESE 30 35 16 19 1015.6 - -
22/02:30am 23.0 - - - - ESE 32 35 17 19 1015.6 - -
22/02:15am 23.0 - - - - ESE 32 - 17 - - 1015.3 -
22/02:00am 23.1 - - - - ESE 32 35 17 19 1015.7 - -
22/01:30am 22.9 - - - - SE 32 35 17 19 1016.0 - -
22/01:15am 23.1 - - - - ESE 30 - 16 - - 1015.9 -
22/01:00am 23.0 - - - - ESE 32 35 17 19 1016.3 - -
22/12:30am 23.0 - - - - SE 30 35 16 19 1016.5 - -
22/12:15am 23.1 - - - - ESE 30 - 16 - - 1016.4 -
22/12:00am 23.0 - - - - SE 30 33 16 18 1016.7 - -
 
Date/Time
EST
Temp
°C
App
Temp
°C
Dew
Point
Rel
Hum
%
Delta-T
°C
Wind Press
QNH
hPa
Press
MSL
hPa
Rain
since 9 am
mm
Dir
 
Spd
km/h
Gust
km/h
Spd
kts
Gust
kts
21/11:30pm 23.2 - - - - SE 30 35 16 19 1016.9 - -
21/11:15pm 23.1 - - - - SE 30 - 16 - - 1016.6 -
21/11:00pm 23.1 - - - - SE 30 33 16 18 1017.0 - -
21/10:30pm 23.1 - - - - SE 30 35 16 19 1017.0 - -
21/10:15pm 23.3 - - - - SE 30 - 16 - - 1016.7 -
21/10:00pm 23.3 - - - - SE 28 33 15 18 1017.0 - -
21/09:30pm 23.2 - - - - SE 30 33 16 18 1017.1 - -
21/09:15pm 23.2 - - - - SE 30 - 16 - - 1016.8 -
21/09:00pm 23.1 - - - - SE 30 33 16 18 1017.2 - -
21/08:30pm 23.3 - - - - SSE 30 32 16 17 1016.9 - -
21/08:15pm 23.2 - - - - SE 30 - 16 - - 1016.5 -
21/08:00pm 23.2 - - - - SSE 30 33 16 18 1016.7 - -
21/07:30pm 23.2 - - - - SSE 28 32 15 17 1016.5 - -
21/07:15pm 23.2 - - - - SSE 28 - 15 - - 1016.1 -
21/07:00pm 22.9 - - - - SSE 28 35 15 19 1016.2 - -
21/06:30pm 23.0 - - - - SE 30 33 16 18 1015.8 - -
21/06:15pm 23.2 - - - - SE 28 - 15 - - 1015.3 -
21/06:00pm 23.2 - - - - SE 26 32 14 17 1015.6 - -
21/05:30pm 23.2 - - - - SE 26 32 14 17 1015.2 - -
21/05:15pm 23.4 - - - - SE 26 - 14 - - 1014.7 -
21/05:00pm 23.1 - - - - SE 26 32 14 17 1014.9 - -
21/04:30pm 23.1 - - - - SE 26 30 14 16 1014.7 - -
21/04:15pm 23.2 - - - - SE 28 - 15 - - 1014.2 -
21/04:00pm 23.2 - - - - SE 28 33 15 18 1014.4 - -
21/03:30pm 23.1 - - - - SE 28 32 15 17 1014.3 - -
21/03:00pm 23.1 - - - - SE 28 32 15 17 1014.3 - -
21/02:30pm 23.0 - - - - SE 30 35 16 19 1014.4 - -
21/02:15pm 23.4 - - - - SE 28 - 15 - - 1014.3 -
21/02:00pm 23.1 - - - - SE 30 33 16 18 1014.7 - -
21/01:30pm 23.3 - - - - SE 26 35 14 19 1015.0 - -
21/01:15pm 23.1 - - - - SE 28 - 15 - - 1014.9 -
21/01:00pm 23.2 - - - - SE 28 32 15 17 1015.4 - -
21/12:30pm 23.0 - - - - SE 28 33 15 18 1015.7 - -
21/12:15pm 23.2 - - - - SE 26 - 14 - - 1015.6 -
21/12:00pm 23.1 - - - - SE 26 35 14 19 1016.1 - -
21/11:30am 23.2 - - - - SE 26 30 14 16 1016.5 - -
21/11:15am 23.0 - - - - SE 26 - 14 - - 1016.4 -
21/11:00am 23.2 - - - - SE 26 30 14 16 1016.8 - -
21/10:30am 23.3 - - - - SE 26 30 14 16 1017.2 - -
21/10:15am 23.1 - - - - SE 24 - 13 - - 1016.9 -
21/10:00am 23.1 - - - - SE 24 30 13 16 1017.4 - -
21/09:30am 23.0 - - - - SE 26 30 14 16 1017.4 - -
21/09:15am 23.0 - - - - SE 26 - 14 - - 1016.8 -
21/09:00am 23.0 - - - - SE 24 30 13 16 1017.0 - -
21/08:30am 23.0 - - - - ESE 24 28 13 15 1017.0 - -
21/08:15am 23.0 - - - - ESE 24 - 13 - - 1016.7 -
21/08:00am 23.1 - - - - ESE 22 28 12 15 1016.9 - -
21/07:30am 23.0 - - - - ESE 24 28 13 15 1016.7 - -
21/07:15am 22.8 - - - - ESE 22 - 12 - - 1016.4 -
21/07:00am 22.7 - - - - ESE 20 26 11 14 1016.5 - -
21/06:30am 22.7 - - - - E 20 24 11 13 1016.1 - -
21/06:15am 22.8 - - - - E 22 - 12 - - 1015.7 -
21/06:00am 22.5 - - - - E 22 26 12 14 1015.8 - -
21/05:30am 22.6 - - - - E 20 26 11 14 1015.4 - -
21/05:15am 22.5 - - - - E 20 - 11 - - 1015.1 -
21/05:00am 22.5 - - - - E 19 24 10 13 1015.2 - -
21/04:30am 22.6 - - - - ESE 20 24 11 13 1015.0 - -
21/04:15am 22.5 - - - - ESE 20 - 11 - - 1014.7 -
21/04:00am 22.5 - - - - E 19 24 10 13 1015.1 - -
21/03:30am 22.6 - - - - ESE 19 24 10 13 1015.3 - -
21/03:15am 22.6 - - - - ESE 20 - 11 - - 1015.0 -
21/03:00am 22.6 - - - - ESE 22 26 12 14 1015.3 - -
21/02:30am 22.6 - - - - E 22 30 12 16 1015.4 - -
21/02:15am 22.7 - - - - E 24 - 13 - - 1015.2 -
21/02:00am 22.5 - - - - E 26 32 14 17 1015.7 - -
21/01:30am 22.6 - - - - E 26 32 14 17 1016.0 - -
21/01:15am 22.6 - - - - E 28 - 15 - - 1015.8 -
21/01:00am 22.6 - - - - E 26 32 14 17 1016.2 - -
21/12:15am 22.7 - - - - E 33 - 18 - - 1016.3 -
 
Date/Time
EST
Temp
°C
App
Temp
°C
Dew
Point
Rel
Hum
%
Delta-T
°C
Wind Press
QNH
hPa
Press
MSL
hPa
Rain
since 9 am
mm
Dir
 
Spd
km/h
Gust
km/h
Spd
kts
Gust
kts
20/11:15pm 22.8 - - - - E 37 - 20 - - 1016.6 -
20/10:15pm 22.7 - - - - E 39 - 21 - - 1016.9 -
20/09:15pm 22.8 - - - - E 33 - 18 - - 1017.7 -
20/08:15pm 22.9 - - - - ESE 33 - 18 - - 1017.7 -
20/07:15pm 23.0 - - - - ESE 33 - 18 - - 1017.1 -
20/06:15pm 22.9 - - - - ESE 33 - 18 - - 1016.2 -
20/05:15pm 22.9 - - - - ESE 30 - 16 - - 1015.4 -
20/04:15pm 23.1 - - - - ESE 32 - 17 - - 1014.5 -
20/03:15pm 23.0 - - - - ESE 30 - 16 - - 1014.2 -
20/02:15pm 22.9 - - - - ESE 30 - 16 - - 1014.6 -
20/01:15pm 22.9 - - - - ESE 30 - 16 - - 1015.1 -

Other Formats:

Comma delimited format used in spreadsheet applications
http://www.bom.gov.au/fwo/IDQ60801/IDQ60801.94289.axf

JavaScript Object Notation format (JSON) in row-major order
http://www.bom.gov.au/fwo/IDQ60801/IDQ60801.94289.json